Figaró Montmany (Vallès Oriental)





Hora UTC 09:15
Temperatura 26.1 ºC
Humitat 49.0 %
Pressió 1014.0 hPa
Pluja 0.0 mm
Velocitat vent 14.5 km/h
Direcció vent

Dades diàries 2024-06-18



Hora UTC (hivern +1h; estiu +2h)
Temperatura (ºC) Humitat (%) Pressió (hPa) Velocitat vent (km/h) Precipitació (mm)
Hora UTC Aire Humitat Pressió Vel. Dir. Vel. Max Dir. Intent. màx 5 min.
00:05 16.1 88.0 1016.5 9.8 9.8 0.0
00:15 16.1 88.0 1016.5 9.8 16.1 0.0
00:25 16.1 88.0 1016.3 9.4 16.1 0.0
00:35 15.8 88.0 1016.0 14.5 16.1 0.0
00:45 15.8 88.0 1016.0 14.5 16.1 0.0
00:55 15.6 88.0 1015.9 11.3 16.1 0.0
01:05 15.6 88.0 1015.7 11.6 19.3 0.0
01:15 15.6 88.0 1015.7 11.6 19.3 0.0
01:25 15.4 88.0 1015.4 12.9 19.3 0.0
01:35 15.4 88.0 1015.4 14.5 19.3 0.0
01:45 15.4 88.0 1015.4 14.5 19.3 0.0
01:55 15.3 88.0 1015.3 16.1 19.3 0.0
02:05 15.4 88.0 1015.2 13.3 20.9 0.0
02:15 15.4 88.0 1015.2 13.3 20.9 0.0
02:25 15.6 87.0 1015.0 16.1 20.9 0.0
02:35 15.3 87.0 1014.8 10.7 20.9 0.0
02:45 15.3 87.0 1014.8 10.7 20.9 0.0
02:55 15.3 87.0 1014.8 9.8 20.9 0.0
03:05 15.4 87.0 1014.7 11.3 20.9 0.0
03:15 15.4 87.0 1014.7 11.3 20.9 0.0
03:25 15.4 87.0 1014.7 16.1 20.9 0.0
03:35 15.4 87.0 1014.8 14.5 20.9 0.0
03:45 15.4 87.0 1014.8 14.5 20.9 0.0
03:55 15.6 87.0 1014.6 11.0 20.9 0.0
04:05 15.5 87.0 1014.6 12.9 20.9 0.0
04:15 15.5 87.0 1014.6 12.9 20.9 0.0
04:25 15.7 86.0 1014.5 11.8 20.9 0.0
04:35 15.9 85.0 1014.4 20.9 22.5 0.0
04:45 15.9 85.0 1014.4 20.9 22.5 0.0
04:55 15.9 84.0 1014.4 13.5 22.5 0.0
05:05 15.7 86.0 1014.6 9.4 22.5 0.0
05:15 15.7 86.0 1014.6 9.4 22.5 0.0
05:25 15.7 86.0 1014.6 11.0 22.5 0.0
05:35 15.7 86.0 1014.7 14.7 22.5 0.0
05:45 15.7 86.0 1014.7 14.7 22.5 0.0
05:55 15.7 86.0 1014.8 14.8 22.5 0.0
06:05 16.1 85.0 1015.1 12.8 22.5 0.0
06:15 16.1 85.0 1015.1 12.8 22.5 0.0
06:25 16.7 84.0 1015.2 11.6 22.5 0.0
06:35 16.7 84.0 1015.2 11.6 22.5 0.0
06:45 17.4 82.0 1015.1 9.8 22.5 0.0
06:55 19.1 76.0 1015.1 6.7 22.5 0.0
07:05 19.1 76.0 1015.1 6.7 22.5 0.0
07:15 19.8 74.0 1015.0 8.4 22.5 0.0
07:25 20.7 72.0 1015.0 8.1 22.5 0.0
07:35 21.3 71.0 1014.8 4.8 22.5 0.0
07:45 21.3 71.0 1014.8 4.8 22.5 0.0
07:55 22.5 66.0 1014.3 6.4 22.5 0.0
08:05 23.4 63.0 1014.6 4.2 22.5 0.0
08:15 23.4 63.0 1014.6 4.2 22.5 0.0
08:25 24.3 55.0 1014.5 2.1 22.5 0.0
08:35 25.6 52.0 1014.3 3.2 22.5 0.0
08:45 25.6 52.0 1014.3 3.2 22.5 0.0
08:55 25.6 50.0 1014.1 4.5 22.5 0.0
09:05 26.1 49.0 1014.0 14.5 22.5 0.0
09:15 26.1 49.0 1014.0 14.5 22.5 0.0
Màxima 26.1 88.0 1016.5 20.9 22.5 0.0
Mínima 15.3 49.0 1014.0
Total 0.0